sensor_id;sensor_type;location;lat;lon;timestamp;pressure;altitude;pressure_sealevel;temperature;humidity
4085;BME280;2057;50.858;6.572;2023-08-08T00:00:13;100343.00;;;13.38;100.00
4085;BME280;2057;50.858;6.572;2023-08-08T00:02:39;100342.34;;;13.44;100.00
4085;BME280;2057;50.858;6.572;2023-08-08T00:05:05;100337.50;;;13.50;100.00
4085;BME280;2057;50.858;6.572;2023-08-08T00:07:30;100343.59;;;13.55;100.00
4085;BME280;2057;50.858;6.572;2023-08-08T00:09:56;100347.56;;;13.47;100.00
4085;BME280;2057;50.858;6.572;2023-08-08T00:12:24;100334.81;;;13.47;100.00
4085;BME280;2057;50.858;6.572;2023-08-08T00:14:49;100324.63;;;13.47;100.00
4085;BME280;2057;50.858;6.572;2023-08-08T00:17:15;100326.69;;;13.57;100.00
4085;BME280;2057;50.858;6.572;2023-08-08T00:19:40;100329.19;;;13.56;100.00
4085;BME280;2057;50.858;6.572;2023-08-08T00:22:06;100330.84;;;13.55;100.00
4085;BME280;2057;50.858;6.572;2023-08-08T00:24:31;100324.59;;;13.45;100.00
4085;BME280;2057;50.858;6.572;2023-08-08T00:26:57;100328.22;;;13.52;100.00
4085;BME280;2057;50.858;6.572;2023-08-08T00:29:22;100327.34;;;13.52;100.00
4085;BME280;2057;50.858;6.572;2023-08-08T00:31:47;100330.69;;;13.51;100.00
4085;BME280;2057;50.858;6.572;2023-08-08T00:34:13;100324.94;;;13.56;100.00
4085;BME280;2057;50.858;6.572;2023-08-08T00:36:38;100321.72;;;13.62;99.88
4085;BME280;2057;50.858;6.572;2023-08-08T00:39:03;100316.75;;;13.65;99.81
4085;BME280;2057;50.858;6.572;2023-08-08T00:41:28;100313.19;;;13.61;99.86
4085;BME280;2057;50.858;6.572;2023-08-08T00:43:56;100315.25;;;13.72;99.63
4085;BME280;2057;50.858;6.572;2023-08-08T00:46:22;100312.78;;;13.73;99.40
4085;BME280;2057;50.858;6.572;2023-08-08T00:48:49;100315.97;;;13.68;99.55
4085;BME280;2057;50.858;6.572;2023-08-08T00:51:18;100303.25;;;13.69;100.00
4085;BME280;2057;50.858;6.572;2023-08-08T00:53:44;100312.34;;;13.61;100.00
4085;BME280;2057;50.858;6.572;2023-08-08T00:56:14;100308.97;;;13.62;100.00
4085;BME280;2057;50.858;6.572;2023-08-08T00:58:40;100304.66;;;13.59;100.00
4085;BME280;2057;50.858;6.572;2023-08-08T01:01:05;100309.63;;;13.56;100.00
4085;BME280;2057;50.858;6.572;2023-08-08T01:03:30;100306.16;;;13.54;100.00
4085;BME280;2057;50.858;6.572;2023-08-08T01:06:05;100304.84;;;13.40;100.00
4085;BME280;2057;50.858;6.572;2023-08-08T01:08:39;100306.41;;;13.38;100.00
4085;BME280;2057;50.858;6.572;2023-08-08T01:11:07;100307.88;;;13.31;100.00
4085;BME280;2057;50.858;6.572;2023-08-08T01:13:33;100306.06;;;13.27;100.00
4085;BME280;2057;50.858;6.572;2023-08-08T01:16:01;100297.00;;;13.35;100.00
4085;BME280;2057;50.858;6.572;2023-08-08T01:18:31;100299.41;;;13.32;100.00
4085;BME280;2057;50.858;6.572;2023-08-08T01:20:57;100301.28;;;13.36;100.00
4085;BME280;2057;50.858;6.572;2023-08-08T01:25:59;100300.41;;;13.36;100.00
4085;BME280;2057;50.858;6.572;2023-08-08T01:28:25;100298.03;;;13.40;100.00
4085;BME280;2057;50.858;6.572;2023-08-08T01:30:51;100295.47;;;13.40;100.00
4085;BME280;2057;50.858;6.572;2023-08-08T01:33:16;100298.78;;;13.38;100.00
4085;BME280;2057;50.858;6.572;2023-08-08T01:35:46;100301.31;;;13.38;100.00
4085;BME280;2057;50.858;6.572;2023-08-08T01:40:47;100298.72;;;13.36;100.00
4085;BME280;2057;50.858;6.572;2023-08-08T01:43:15;100294.56;;;13.38;100.00
4085;BME280;2057;50.858;6.572;2023-08-08T01:45:41;100300.34;;;13.34;100.00
4085;BME280;2057;50.858;6.572;2023-08-08T01:48:09;100303.66;;;13.31;100.00
4085;BME280;2057;50.858;6.572;2023-08-08T01:50:35;100301.44;;;13.39;100.00
4085;BME280;2057;50.858;6.572;2023-08-08T01:53:00;100301.16;;;13.33;100.00
4085;BME280;2057;50.858;6.572;2023-08-08T01:55:26;100298.53;;;13.30;100.00
4085;BME280;2057;50.858;6.572;2023-08-08T01:57:51;100301.97;;;13.32;100.00
4085;BME280;2057;50.858;6.572;2023-08-08T02:00:20;100297.22;;;13.41;100.00
4085;BME280;2057;50.858;6.572;2023-08-08T02:02:45;100294.66;;;13.41;100.00
4085;BME280;2057;50.858;6.572;2023-08-08T02:05:10;100291.50;;;13.48;100.00
4085;BME280;2057;50.858;6.572;2023-08-08T02:07:36;100291.88;;;13.35;100.00
4085;BME280;2057;50.858;6.572;2023-08-08T02:10:01;100290.19;;;13.36;100.00
4085;BME280;2057;50.858;6.572;2023-08-08T02:12:29;100281.66;;;13.33;100.00
4085;BME280;2057;50.858;6.572;2023-08-08T02:14:56;100289.13;;;13.29;100.00
4085;BME280;2057;50.858;6.572;2023-08-08T02:17:21;100282.91;;;13.21;100.00
4085;BME280;2057;50.858;6.572;2023-08-08T02:19:46;100288.91;;;13.23;100.00
4085;BME280;2057;50.858;6.572;2023-08-08T02:22:12;100283.09;;;13.27;100.00
4085;BME280;2057;50.858;6.572;2023-08-08T02:24:40;100277.69;;;13.17;100.00
4085;BME280;2057;50.858;6.572;2023-08-08T02:27:08;100284.25;;;13.11;100.00
4085;BME280;2057;50.858;6.572;2023-08-08T02:29:33;100276.56;;;13.09;100.00
4085;BME280;2057;50.858;6.572;2023-08-08T02:31:58;100271.13;;;13.00;100.00
4085;BME280;2057;50.858;6.572;2023-08-08T02:34:24;100269.38;;;12.99;100.00
4085;BME280;2057;50.858;6.572;2023-08-08T02:36:49;100265.25;;;13.02;100.00
4085;BME280;2057;50.858;6.572;2023-08-08T02:39:17;100271.72;;;12.93;100.00
4085;BME280;2057;50.858;6.572;2023-08-08T02:41:45;100268.22;;;12.89;100.00
4085;BME280;2057;50.858;6.572;2023-08-08T02:44:10;100264.22;;;12.96;100.00
4085;BME280;2057;50.858;6.572;2023-08-08T02:46:36;100259.00;;;12.93;100.00
4085;BME280;2057;50.858;6.572;2023-08-08T02:49:04;100253.72;;;12.88;100.00
4085;BME280;2057;50.858;6.572;2023-08-08T02:51:32;100248.66;;;12.90;100.00
4085;BME280;2057;50.858;6.572;2023-08-08T02:53:57;100246.59;;;12.79;100.00
4085;BME280;2057;50.858;6.572;2023-08-08T02:56:22;100241.78;;;12.87;100.00
4085;BME280;2057;50.858;6.572;2023-08-08T02:58:48;100237.31;;;12.80;100.00
4085;BME280;2057;50.858;6.572;2023-08-08T03:01:14;100246.59;;;12.79;100.00
4085;BME280;2057;50.858;6.572;2023-08-08T03:03:41;100245.09;;;12.84;100.00
4085;BME280;2057;50.858;6.572;2023-08-08T03:06:09;100245.41;;;12.69;100.00
4085;BME280;2057;50.858;6.572;2023-08-08T03:08:37;100242.19;;;12.74;100.00
4085;BME280;2057;50.858;6.572;2023-08-08T03:11:02;100248.25;;;12.77;100.00
4085;BME280;2057;50.858;6.572;2023-08-08T03:13:27;100243.16;;;12.77;100.00
4085;BME280;2057;50.858;6.572;2023-08-08T03:15:53;100245.53;;;12.73;100.00
4085;BME280;2057;50.858;6.572;2023-08-08T03:18:18;100241.41;;;12.76;100.00
4085;BME280;2057;50.858;6.572;2023-08-08T03:20:43;100245.53;;;12.73;100.00
4085;BME280;2057;50.858;6.572;2023-08-08T03:41:12;100225.09;;;12.71;100.00
4085;BME280;2057;50.858;6.572;2023-08-08T03:43:39;100225.97;;;12.71;100.00
4085;BME280;2057;50.858;6.572;2023-08-08T03:46:05;100227.47;;;12.66;100.00
4085;BME280;2057;50.858;6.572;2023-08-08T03:48:30;100224.28;;;12.72;100.00
4085;BME280;2057;50.858;6.572;2023-08-08T03:50:56;100226.94;;;12.75;100.00
4085;BME280;2057;50.858;6.572;2023-08-08T03:53:21;100226.94;;;12.75;100.00
4085;BME280;2057;50.858;6.572;2023-08-08T03:55:46;100223.31;;;12.68;100.00
4085;BME280;2057;50.858;6.572;2023-08-08T03:58:11;100218.16;;;12.67;100.00
4085;BME280;2057;50.858;6.572;2023-08-08T04:00:37;100210.56;;;12.68;100.00
4085;BME280;2057;50.858;6.572;2023-08-08T04:03:04;100219.09;;;12.69;100.00
4085;BME280;2057;50.858;6.572;2023-08-08T04:05:30;100223.25;;;12.67;100.00
4085;BME280;2057;50.858;6.572;2023-08-08T04:07:55;100216.25;;;12.61;100.00
4085;BME280;2057;50.858;6.572;2023-08-08T04:10:20;100218.81;;;12.61;100.00
4085;BME280;2057;50.858;6.572;2023-08-08T04:12:46;100221.56;;;12.67;100.00
4085;BME280;2057;50.858;6.572;2023-08-08T04:15:11;100217.53;;;12.73;100.00
4085;BME280;2057;50.858;6.572;2023-08-08T04:17:39;100220.75;;;12.68;100.00
4085;BME280;2057;50.858;6.572;2023-08-08T04:20:05;100222.66;;;12.74;100.00
4085;BME280;2057;50.858;6.572;2023-08-08T04:22:31;100215.06;;;12.76;100.00
4085;BME280;2057;50.858;6.572;2023-08-08T04:24:56;100223.47;;;12.73;100.00
4085;BME280;2057;50.858;6.572;2023-08-08T04:27:22;100219.09;;;12.69;100.00
4085;BME280;2057;50.858;6.572;2023-08-08T04:29:50;100214.84;;;12.69;100.00
4085;BME280;2057;50.858;6.572;2023-08-08T04:32:15;100217.34;;;12.68;100.00
4085;BME280;2057;50.858;6.572;2023-08-08T04:34:41;100221.72;;;12.72;100.00
4085;BME280;2057;50.858;6.572;2023-08-08T04:37:06;100214.97;;;12.73;100.00
4085;BME280;2057;50.858;6.572;2023-08-08T04:39:31;100215.06;;;12.76;100.00
4085;BME280;2057;50.858;6.572;2023-08-08T04:41:57;100217.78;;;12.80;100.00
4085;BME280;2057;50.858;6.572;2023-08-08T04:44:22;100219.41;;;12.78;100.00
4085;BME280;2057;50.858;6.572;2023-08-08T04:46:47;100222.88;;;12.80;100.00
4085;BME280;2057;50.858;6.572;2023-08-08T04:49:13;100219.72;;;12.87;100.00
4085;BME280;2057;50.858;6.572;2023-08-08T04:51:38;100222.38;;;12.91;100.00
4085;BME280;2057;50.858;6.572;2023-08-08T04:54:03;100214.63;;;12.87;100.00
4085;BME280;2057;50.858;6.572;2023-08-08T04:56:29;100219.03;;;12.92;100.00
4085;BME280;2057;50.858;6.572;2023-08-08T04:58:54;100223.50;;;12.99;100.00
4085;BME280;2057;50.858;6.572;2023-08-08T05:01:20;100222.88;;;13.05;100.00
4085;BME280;2057;50.858;6.572;2023-08-08T05:03:45;100226.44;;;13.10;100.00
4085;BME280;2057;50.858;6.572;2023-08-08T05:06:11;100224.81;;;13.12;100.00
4085;BME280;2057;50.858;6.572;2023-08-08T05:08:36;100232.53;;;13.13;100.00
4085;BME280;2057;50.858;6.572;2023-08-08T05:11:01;100234.56;;;13.24;100.00
4085;BME280;2057;50.858;6.572;2023-08-08T05:13:27;100226.28;;;13.31;100.00
4085;BME280;2057;50.858;6.572;2023-08-08T05:15:57;100226.50;;;13.37;100.00
4085;BME280;2057;50.858;6.572;2023-08-08T05:18:23;100224.03;;;13.39;100.00
4085;BME280;2057;50.858;6.572;2023-08-08T05:20:48;100220.72;;;13.41;100.00
4085;BME280;2057;50.858;6.572;2023-08-08T05:23:16;100225.13;;;13.45;100.00
4085;BME280;2057;50.858;6.572;2023-08-08T05:25:41;100223.50;;;13.47;100.00
4085;BME280;2057;50.858;6.572;2023-08-08T05:28:07;100214.34;;;13.54;100.00
4085;BME280;2057;50.858;6.572;2023-08-08T05:30:32;100213.47;;;13.54;100.00
4085;BME280;2057;50.858;6.572;2023-08-08T05:32:58;100214.44;;;13.57;100.00
4085;BME280;2057;50.858;6.572;2023-08-08T05:35:24;100218.72;;;13.58;100.00
4085;BME280;2057;50.858;6.572;2023-08-08T05:37:49;100220.66;;;13.65;100.00
4085;BME280;2057;50.858;6.572;2023-08-08T05:40:14;100220.00;;;13.71;100.00
4085;BME280;2057;50.858;6.572;2023-08-08T05:42:42;100218.28;;;13.72;100.00
4085;BME280;2057;50.858;6.572;2023-08-08T05:45:11;100218.28;;;13.72;100.00
4085;BME280;2057;50.858;6.572;2023-08-08T05:47:41;100217.00;;;13.85;100.00
4085;BME280;2057;50.858;6.572;2023-08-08T05:50:07;100226.38;;;13.86;100.00
4085;BME280;2057;50.858;6.572;2023-08-08T05:52:32;100225.03;;;13.97;100.00
4085;BME280;2057;50.858;6.572;2023-08-08T05:54:57;100227.69;;;14.00;100.00
4085;BME280;2057;50.858;6.572;2023-08-08T05:57:27;100226.72;;;13.96;100.00
4085;BME280;2057;50.858;6.572;2023-08-08T05:59:52;100227.00;;;14.06;100.00
4085;BME280;2057;50.858;6.572;2023-08-08T06:02:17;100221.03;;;14.05;100.00
4085;BME280;2057;50.858;6.572;2023-08-08T06:04:43;100232.22;;;14.09;100.00
4085;BME280;2057;50.858;6.572;2023-08-08T06:07:08;100237.59;;;14.18;100.00
4085;BME280;2057;50.858;6.572;2023-08-08T06:09:34;100245.44;;;14.24;100.00
4085;BME280;2057;50.858;6.572;2023-08-08T06:11:59;100238.03;;;14.34;100.00
4085;BME280;2057;50.858;6.572;2023-08-08T06:14:27;100239.38;;;14.21;100.00
4085;BME280;2057;50.858;6.572;2023-08-08T06:16:55;100235.91;;;14.19;100.00
4085;BME280;2057;50.858;6.572;2023-08-08T06:19:20;100239.66;;;14.30;100.00
4085;BME280;2057;50.858;6.572;2023-08-08T06:21:46;100236.00;;;14.22;100.00
4085;BME280;2057;50.858;6.572;2023-08-08T06:24:11;100243.75;;;14.25;100.00
4085;BME280;2057;50.858;6.572;2023-08-08T06:26:37;100242.16;;;14.28;100.00
4085;BME280;2057;50.858;6.572;2023-08-08T06:29:02;100247.34;;;14.32;100.00
4085;BME280;2057;50.858;6.572;2023-08-08T06:31:27;100249.75;;;14.27;100.00
4085;BME280;2057;50.858;6.572;2023-08-08T06:33:53;100254.13;;;14.30;100.00
4085;BME280;2057;50.858;6.572;2023-08-08T06:36:19;100261.97;;;14.37;100.00
4085;BME280;2057;50.858;6.572;2023-08-08T06:38:44;100259.00;;;14.51;100.00
4085;BME280;2057;50.858;6.572;2023-08-08T06:41:10;100260.78;;;14.55;100.00
4085;BME280;2057;50.858;6.572;2023-08-08T06:43:35;100260.72;;;14.52;100.00
4085;BME280;2057;50.858;6.572;2023-08-08T06:46:00;100249.25;;;14.66;100.00
4085;BME280;2057;50.858;6.572;2023-08-08T06:48:26;100255.41;;;14.73;100.00
4085;BME280;2057;50.858;6.572;2023-08-08T06:50:51;100242.97;;;14.87;100.00
4085;BME280;2057;50.858;6.572;2023-08-08T06:53:17;100248.44;;;14.99;100.00
4085;BME280;2057;50.858;6.572;2023-08-08T06:55:43;100248.53;;;15.02;100.00
4085;BME280;2057;50.858;6.572;2023-08-08T06:58:10;100248.22;;;14.92;100.00
4085;BME280;2057;50.858;6.572;2023-08-08T07:00:36;100249.44;;;14.74;100.00
4085;BME280;2057;50.858;6.572;2023-08-08T07:03:01;100261.78;;;14.89;100.00
4085;BME280;2057;50.858;6.572;2023-08-08T07:05:26;100244.13;;;14.98;100.00
4085;BME280;2057;50.858;6.572;2023-08-08T07:07:52;100240.91;;;15.05;100.00
4085;BME280;2057;50.858;6.572;2023-08-08T07:10:20;100240.19;;;15.10;100.00
4085;BME280;2057;50.858;6.572;2023-08-08T07:12:47;100255.44;;;15.06;100.00
4085;BME280;2057;50.858;6.572;2023-08-08T07:15:14;100245.69;;;15.25;100.00
4085;BME280;2057;50.858;6.572;2023-08-08T07:17:41;100240.47;;;15.20;100.00
4085;BME280;2057;50.858;6.572;2023-08-08T07:20:07;100237.09;;;15.23;100.00
4085;BME280;2057;50.858;6.572;2023-08-08T07:22:33;100239.97;;;15.02;100.00
4085;BME280;2057;50.858;6.572;2023-08-08T07:24:59;100239.63;;;15.21;100.00
4085;BME280;2057;50.858;6.572;2023-08-08T07:27:27;100233.25;;;15.39;100.00
4085;BME280;2057;50.858;6.572;2023-08-08T07:29:53;100245.94;;;15.34;100.00
4085;BME280;2057;50.858;6.572;2023-08-08T07:32:18;100242.69;;;15.42;100.00
4085;BME280;2057;50.858;6.572;2023-08-08T07:34:43;100239.19;;;15.38;100.00
4085;BME280;2057;50.858;6.572;2023-08-08T07:37:09;100237.72;;;15.48;100.00
4085;BME280;2057;50.858;6.572;2023-08-08T07:39:34;100243.88;;;15.55;100.00
4085;BME280;2057;50.858;6.572;2023-08-08T07:42:00;100238.03;;;15.60;99.58
4085;BME280;2057;50.858;6.572;2023-08-08T07:44:25;100242.78;;;15.80;99.95
4085;BME280;2057;50.858;6.572;2023-08-08T07:46:50;100238.28;;;15.69;99.62
4085;BME280;2057;50.858;6.572;2023-08-08T07:49:16;100245.03;;;15.67;99.61
4085;BME280;2057;50.858;6.572;2023-08-08T07:51:41;100245.25;;;15.77;99.23
4085;BME280;2057;50.858;6.572;2023-08-08T07:54:06;100242.34;;;15.96;99.50
4085;BME280;2057;50.858;6.572;2023-08-08T07:56:36;100239.88;;;16.01;97.54
4085;BME280;2057;50.858;6.572;2023-08-08T07:59:01;100239.00;;;16.00;96.96
4085;BME280;2057;50.858;6.572;2023-08-08T08:01:27;100241.53;;;15.99;97.18
4085;BME280;2057;50.858;6.572;2023-08-08T08:03:53;100242.88;;;16.21;96.66
4085;BME280;2057;50.858;6.572;2023-08-08T08:06:19;100239.63;;;16.28;96.25
4085;BME280;2057;50.858;6.572;2023-08-08T08:08:44;100244.75;;;16.28;95.05
4085;BME280;2057;50.858;6.572;2023-08-08T08:11:12;100234.03;;;16.07;94.99
4085;BME280;2057;50.858;6.572;2023-08-08T08:13:38;100239.16;;;16.07;95.25
4085;BME280;2057;50.858;6.572;2023-08-08T08:16:04;100230.06;;;16.20;95.75
4085;BME280;2057;50.858;6.572;2023-08-08T08:18:30;100236.09;;;16.23;94.45
4085;BME280;2057;50.858;6.572;2023-08-08T08:20:58;100238.13;;;16.38;93.27
4085;BME280;2057;50.858;6.572;2023-08-08T08:23:24;100232.53;;;16.58;92.74
4085;BME280;2057;50.858;6.572;2023-08-08T08:25:52;100231.63;;;16.54;91.04
4085;BME280;2057;50.858;6.572;2023-08-08T08:28:18;100240.19;;;16.56;90.28
4085;BME280;2057;50.858;6.572;2023-08-08T08:30:43;100235.16;;;16.59;90.31
4085;BME280;2057;50.858;6.572;2023-08-08T08:33:09;100225.13;;;16.73;90.43
4085;BME280;2057;50.858;6.572;2023-08-08T08:35:35;100227.03;;;16.82;89.40
4085;BME280;2057;50.858;6.572;2023-08-08T08:38:03;100232.91;;;16.76;89.05
4085;BME280;2057;50.858;6.572;2023-08-08T08:40:33;100235.59;;;16.40;89.69
4085;BME280;2057;50.858;6.572;2023-08-08T08:43:01;100226.66;;;16.21;90.13
4085;BME280;2057;50.858;6.572;2023-08-08T08:45:29;100232.75;;;16.26;90.55
4085;BME280;2057;50.858;6.572;2023-08-08T08:47:56;100246.34;;;16.23;90.67
4085;BME280;2057;50.858;6.572;2023-08-08T08:50:26;100229.16;;;16.18;89.78
4085;BME280;2057;50.858;6.572;2023-08-08T08:52:53;100228.41;;;16.23;89.62
4085;BME280;2057;50.858;6.572;2023-08-08T08:55:21;100234.50;;;16.28;89.08
4085;BME280;2057;50.858;6.572;2023-08-08T08:57:46;100226.97;;;16.36;88.47
4085;BME280;2057;50.858;6.572;2023-08-08T09:00:13;100228.94;;;16.48;87.68
4085;BME280;2057;50.858;6.572;2023-08-08T09:02:39;100232.59;;;16.61;87.71
4085;BME280;2057;50.858;6.572;2023-08-08T09:05:04;100224.56;;;16.87;86.81
4085;BME280;2057;50.858;6.572;2023-08-08T09:07:32;100237.38;;;16.85;85.96
4085;BME280;2057;50.858;6.572;2023-08-08T09:09:58;100234.28;;;17.02;86.70
4085;BME280;2057;50.858;6.572;2023-08-08T09:12:24;100224.03;;;17.02;85.88
4085;BME280;2057;50.858;6.572;2023-08-08T09:14:57;100222.53;;;17.15;86.39
4085;BME280;2057;50.858;6.572;2023-08-08T09:17:25;100232.81;;;17.16;83.70
4085;BME280;2057;50.858;6.572;2023-08-08T09:19:53;100238.06;;;17.22;83.28
4085;BME280;2057;50.858;6.572;2023-08-08T09:22:19;100235.47;;;17.22;83.15
4085;BME280;2057;50.858;6.572;2023-08-08T09:24:44;100222.78;;;17.29;82.22
4085;BME280;2057;50.858;6.572;2023-08-08T09:27:11;100220.31;;;17.35;82.51
4085;BME280;2057;50.858;6.572;2023-08-08T09:29:39;100224.75;;;17.45;83.51
4085;BME280;2057;50.858;6.572;2023-08-08T09:32:08;100239.13;;;17.35;83.01
4085;BME280;2057;50.858;6.572;2023-08-08T09:34:34;100231.34;;;17.31;81.86
4085;BME280;2057;50.858;6.572;2023-08-08T09:36:59;100230.50;;;17.32;79.16
4085;BME280;2057;50.858;6.572;2023-08-08T09:39:26;100236.69;;;17.43;79.68
4085;BME280;2057;50.858;6.572;2023-08-08T09:41:52;100227.06;;;17.30;80.24
4085;BME280;2057;50.858;6.572;2023-08-08T09:44:17;100238.53;;;17.50;80.33
4085;BME280;2057;50.858;6.572;2023-08-08T09:46:43;100234.38;;;17.59;80.76
4085;BME280;2057;50.858;6.572;2023-08-08T09:49:10;100246.13;;;17.43;78.86
4085;BME280;2057;50.858;6.572;2023-08-08T09:51:36;100236.03;;;17.55;79.52
4085;BME280;2057;50.858;6.572;2023-08-08T09:54:04;100233.47;;;17.55;79.13
4085;BME280;2057;50.858;6.572;2023-08-08T09:56:32;100237.16;;;17.72;78.22
4085;BME280;2057;50.858;6.572;2023-08-08T09:59:01;100232.63;;;17.54;78.13
4085;BME280;2057;50.858;6.572;2023-08-08T10:01:27;100242.97;;;17.59;78.29
4085;BME280;2057;50.858;6.572;2023-08-08T10:03:52;100239.94;;;17.86;78.50
4085;BME280;2057;50.858;6.572;2023-08-08T10:06:18;100239.88;;;17.82;76.99
4085;BME280;2057;50.858;6.572;2023-08-08T10:08:44;100235.50;;;17.76;75.91
4085;BME280;2057;50.858;6.572;2023-08-08T10:11:10;100236.53;;;17.87;76.56
4085;BME280;2057;50.858;6.572;2023-08-08T10:13:37;100231.47;;;17.92;76.86
4085;BME280;2057;50.858;6.572;2023-08-08T10:16:08;100226.53;;;18.03;75.23
4085;BME280;2057;50.858;6.572;2023-08-08T10:18:34;100235.78;;;17.95;75.90
4085;BME280;2057;50.858;6.572;2023-08-08T10:21:00;100233.41;;;18.06;76.25
4085;BME280;2057;50.858;6.572;2023-08-08T10:23:26;100237.75;;;18.10;74.12
4085;BME280;2057;50.858;6.572;2023-08-08T10:25:52;100245.34;;;18.02;73.48
4085;BME280;2057;50.858;6.572;2023-08-08T10:28:23;100236.84;;;18.06;74.76
4085;BME280;2057;50.858;6.572;2023-08-08T10:30:57;100241.88;;;18.00;75.43
4085;BME280;2057;50.858;6.572;2023-08-08T10:33:26;100229.00;;;17.97;75.97
4085;BME280;2057;50.858;6.572;2023-08-08T10:38:20;100237.78;;;18.13;74.40
4085;BME280;2057;50.858;6.572;2023-08-08T10:40:47;100237.84;;;18.17;74.80
4085;BME280;2057;50.858;6.572;2023-08-08T10:43:12;100236.22;;;18.23;73.68
4085;BME280;2057;50.858;6.572;2023-08-08T10:45:40;100228.34;;;18.10;74.22
4085;BME280;2057;50.858;6.572;2023-08-08T10:48:09;100230.38;;;18.34;75.42
4085;BME280;2057;50.858;6.572;2023-08-08T10:50:38;100226.50;;;18.69;75.47
4085;BME280;2057;50.858;6.572;2023-08-08T10:53:10;100235.06;;;18.68;73.23
4085;BME280;2057;50.858;6.572;2023-08-08T10:55:36;100217.94;;;18.70;73.40
4085;BME280;2057;50.858;6.572;2023-08-08T10:58:10;100228.06;;;18.56;72.88
4085;BME280;2057;50.858;6.572;2023-08-08T11:00:39;100231.34;;;18.43;72.40
4085;BME280;2057;50.858;6.572;2023-08-08T11:03:05;100232.63;;;18.13;72.32
4085;BME280;2057;50.858;6.572;2023-08-08T11:05:32;100224.28;;;18.28;73.05
4085;BME280;2057;50.858;6.572;2023-08-08T11:07:59;100223.59;;;18.41;73.06
4085;BME280;2057;50.858;6.572;2023-08-08T11:10:25;100230.56;;;18.50;72.73
4085;BME280;2057;50.858;6.572;2023-08-08T11:13:00;100233.06;;;18.42;72.25
4085;BME280;2057;50.858;6.572;2023-08-08T11:15:26;100228.75;;;18.43;71.85
4085;BME280;2057;50.858;6.572;2023-08-08T11:17:54;100230.06;;;18.13;71.22
4085;BME280;2057;50.858;6.572;2023-08-08T11:20:21;100223.50;;;18.33;72.18
4085;BME280;2057;50.858;6.572;2023-08-08T11:22:54;100220.22;;;18.47;71.26
4085;BME280;2057;50.858;6.572;2023-08-08T11:25:21;100219.44;;;18.51;71.21
4085;BME280;2057;50.858;6.572;2023-08-08T11:27:51;100225.16;;;18.30;70.74
4085;BME280;2057;50.858;6.572;2023-08-08T11:30:17;100226.00;;;18.29;70.41
4085;BME280;2057;50.858;6.572;2023-08-08T11:32:42;100223.19;;;18.09;72.32
4085;BME280;2057;50.858;6.572;2023-08-08T11:35:08;100223.16;;;18.07;71.84
4085;BME280;2057;50.858;6.572;2023-08-08T11:37:34;100221.31;;;17.98;72.49
4085;BME280;2057;50.858;6.572;2023-08-08T11:40:00;100213.75;;;18.09;71.49
4085;BME280;2057;50.858;6.572;2023-08-08T11:42:26;100213.81;;;18.14;71.82
4085;BME280;2057;50.858;6.572;2023-08-08T11:44:51;100205.31;;;18.19;71.61
4085;BME280;2057;50.858;6.572;2023-08-08T11:47:17;100211.28;;;18.15;71.56
4085;BME280;2057;50.858;6.572;2023-08-08T11:49:43;100203.00;;;18.38;71.79
4085;BME280;2057;50.858;6.572;2023-08-08T11:52:08;100212.28;;;18.27;72.02
4085;BME280;2057;50.858;6.572;2023-08-08T11:54:37;100212.50;;;18.44;70.55
4085;BME280;2057;50.858;6.572;2023-08-08T11:57:05;100214.47;;;18.66;69.45
4085;BME280;2057;50.858;6.572;2023-08-08T11:59:31;100200.84;;;18.75;69.13
4085;BME280;2057;50.858;6.572;2023-08-08T12:01:57;100192.25;;;18.73;68.99
4085;BME280;2057;50.858;6.572;2023-08-08T12:04:22;100200.53;;;18.49;68.10
4085;BME280;2057;50.858;6.572;2023-08-08T12:06:48;100198.13;;;18.61;68.56
4085;BME280;2057;50.858;6.572;2023-08-08T12:09:13;100198.75;;;18.43;69.30
4085;BME280;2057;50.858;6.572;2023-08-08T12:11:41;100204.91;;;18.53;70.01
4085;BME280;2057;50.858;6.572;2023-08-08T12:14:09;100202.94;;;18.35;69.70
4085;BME280;2057;50.858;6.572;2023-08-08T12:16:37;100226.19;;;18.44;70.15
4085;BME280;2057;50.858;6.572;2023-08-08T12:19:07;100197.06;;;18.44;70.05
4085;BME280;2057;50.858;6.572;2023-08-08T12:21:32;100214.13;;;18.37;69.75
4085;BME280;2057;50.858;6.572;2023-08-08T12:23:58;100201.00;;;18.15;69.53
4085;BME280;2057;50.858;6.572;2023-08-08T12:26:23;100205.97;;;18.03;69.91
4085;BME280;2057;50.858;6.572;2023-08-08T12:28:49;100195.63;;;18.00;69.90
4085;BME280;2057;50.858;6.572;2023-08-08T12:31:16;100207.47;;;17.92;70.08
4085;BME280;2057;50.858;6.572;2023-08-08T12:33:43;100208.22;;;17.81;69.59
4085;BME280;2057;50.858;6.572;2023-08-08T12:36:10;100210.75;;;17.80;70.47
4085;BME280;2057;50.858;6.572;2023-08-08T12:38:36;100198.84;;;17.85;70.08
4085;BME280;2057;50.858;6.572;2023-08-08T12:41:04;100202.91;;;17.70;70.33
4085;BME280;2057;50.858;6.572;2023-08-08T12:43:29;100215.09;;;17.85;70.50
4085;BME280;2057;50.858;6.572;2023-08-08T12:45:55;100211.78;;;17.93;71.61
4085;BME280;2057;50.858;6.572;2023-08-08T12:48:20;100212.75;;;17.98;71.66
4085;BME280;2057;50.858;6.572;2023-08-08T12:50:45;100204.91;;;17.90;71.89
4085;BME280;2057;50.858;6.572;2023-08-08T12:53:11;100212.56;;;17.87;72.15
4085;BME280;2057;50.858;6.572;2023-08-08T12:55:36;100209.06;;;17.83;71.34
4085;BME280;2057;50.858;6.572;2023-08-08T12:58:02;100220.47;;;17.98;71.79
4085;BME280;2057;50.858;6.572;2023-08-08T13:00:29;100204.06;;;17.93;71.40
4085;BME280;2057;50.858;6.572;2023-08-08T13:02:54;100211.91;;;17.99;71.56
4085;BME280;2057;50.858;6.572;2023-08-08T13:05:20;100210.22;;;18.01;71.26
4085;BME280;2057;50.858;6.572;2023-08-08T13:07:45;100205.97;;;18.05;70.99
4085;BME280;2057;50.858;6.572;2023-08-08T13:10:11;100203.38;;;18.01;71.45
4085;BME280;2057;50.858;6.572;2023-08-08T13:12:36;100204.25;;;18.03;72.43
4085;BME280;2057;50.858;6.572;2023-08-08T13:15:03;100202.34;;;17.92;73.60
4085;BME280;2057;50.858;6.572;2023-08-08T13:17:31;100207.59;;;17.96;73.26
4085;BME280;2057;50.858;6.572;2023-08-08T13:19:57;100214.34;;;17.93;74.10
4085;BME280;2057;50.858;6.572;2023-08-08T13:22:22;100210.72;;;17.77;73.29
4085;BME280;2057;50.858;6.572;2023-08-08T13:24:48;100201.44;;;17.86;74.15